createdAt,value
2023-01-13T00:01:27.638Z,3.93
2023-01-13T00:03:54.173Z,3.37
2023-01-13T00:06:22.243Z,4.27
2023-01-13T00:08:49.840Z,4.07
2023-01-13T00:11:16.510Z,3.00
2023-01-13T00:13:43.121Z,1.93
2023-01-13T00:16:15.686Z,2.17
2023-01-13T00:18:42.330Z,1.50
2023-01-13T00:21:08.829Z,2.93
2023-01-13T00:23:35.762Z,1.87
2023-01-13T00:26:06.452Z,3.00
2023-01-13T00:28:32.881Z,2.00
2023-01-13T00:31:09.673Z,2.80
2023-01-13T00:33:36.436Z,3.20
2023-01-13T00:36:03.781Z,3.23
2023-01-13T00:38:31.251Z,3.33
2023-01-13T00:41:02.779Z,2.57
2023-01-13T00:43:30.191Z,1.60
2023-01-13T00:45:56.669Z,1.73
2023-01-13T00:48:23.971Z,2.37
2023-01-13T00:51:00.899Z,2.33
2023-01-13T00:53:27.837Z,1.80
2023-01-13T00:56:01.069Z,3.45
2023-01-13T00:58:28.075Z,2.92
2023-01-13T01:00:54.680Z,1.63
2023-01-13T01:03:21.255Z,1.23
2023-01-13T01:05:48.250Z,1.83
2023-01-13T01:08:14.799Z,2.88
2023-01-13T01:10:41.422Z,2.38
2023-01-13T01:13:07.939Z,1.38
2023-01-13T01:15:34.387Z,1.30
2023-01-13T01:18:00.815Z,1.35
2023-01-13T01:20:27.346Z,2.30
2023-01-13T01:22:53.892Z,1.60
2023-01-13T01:25:20.428Z,3.10
2023-01-13T01:27:46.883Z,2.72
2023-01-13T01:30:13.618Z,2.63
2023-01-13T01:32:40.022Z,3.17
2023-01-13T01:35:06.822Z,3.75
2023-01-13T01:37:33.436Z,2.50
2023-01-13T01:39:59.852Z,1.38
2023-01-13T01:42:45.225Z,2.08
2023-01-13T01:45:19.396Z,1.70
2023-01-13T01:47:47.810Z,3.70
2023-01-13T01:50:14.773Z,3.70
2023-01-13T01:52:43.519Z,1.65
2023-01-13T01:55:15.128Z,3.63
2023-01-13T01:57:44.626Z,1.00
2023-01-13T02:00:11.457Z,3.08
2023-01-13T02:02:37.999Z,1.33
2023-01-13T02:05:04.563Z,3.15
2023-01-13T02:07:32.336Z,2.53
2023-01-13T02:10:01.210Z,1.23
2023-01-13T02:12:31.860Z,2.00
2023-01-13T02:15:07.477Z,1.60
2023-01-13T02:17:43.197Z,1.83
2023-01-13T02:20:29.905Z,2.33
2023-01-13T02:23:35.208Z,1.53
2023-01-13T02:26:10.740Z,1.93
2023-01-13T02:29:12.830Z,2.50
2023-01-13T02:31:44.853Z,3.00
2023-01-13T02:34:17.609Z,3.63
2023-01-13T02:36:48.937Z,2.73
2023-01-13T02:42:06.924Z,2.92
2023-01-13T02:47:03.937Z,2.38
2023-01-13T02:49:38.501Z,2.40
2023-01-13T02:52:11.109Z,2.42
2023-01-13T02:54:39.351Z,2.17
2023-01-13T02:57:07.046Z,1.42
2023-01-13T02:59:33.972Z,2.72
2023-01-13T03:02:01.182Z,2.35
2023-01-13T03:04:42.998Z,3.50
2023-01-13T03:07:12.932Z,2.83
2023-01-13T03:09:52.921Z,3.00
2023-01-13T03:12:44.140Z,2.35
2023-01-13T03:15:13.661Z,3.42
2023-01-13T03:17:42.677Z,9.60
2023-01-13T03:20:15.214Z,3.33
2023-01-13T03:23:01.858Z,2.05
2023-01-13T03:25:29.933Z,1.80
2023-01-13T03:28:02.577Z,2.17
2023-01-13T03:30:33.455Z,2.25
2023-01-13T03:33:02.764Z,1.63
2023-01-13T03:35:31.181Z,3.88
2023-01-13T03:38:11.824Z,3.13
2023-01-13T03:40:44.547Z,2.10
2023-01-13T03:43:32.279Z,1.63
2023-01-13T03:46:02.562Z,2.15
2023-01-13T03:48:31.339Z,1.63
2023-01-13T03:51:04.200Z,1.52
2023-01-13T03:53:32.731Z,1.83
2023-01-13T03:56:01.639Z,1.55
2023-01-13T03:58:37.604Z,1.73
2023-01-13T04:01:13.064Z,1.55
2023-01-13T04:03:46.135Z,0.80
2023-01-13T04:06:32.881Z,2.67
2023-01-13T04:09:06.454Z,2.55
2023-01-13T04:11:35.882Z,2.42
2023-01-13T04:14:03.464Z,0.98
2023-01-13T04:16:29.987Z,4.43
2023-01-13T04:18:56.452Z,2.92
2023-01-13T04:21:22.883Z,2.80
2023-01-13T04:23:51.467Z,1.92
2023-01-13T04:26:19.689Z,10.05
2023-01-13T04:28:46.779Z,1.70
2023-01-13T04:31:13.308Z,3.38
2023-01-13T04:33:39.819Z,4.57
2023-01-13T04:36:06.420Z,3.13
2023-01-13T04:38:32.851Z,3.35
2023-01-13T04:40:59.320Z,2.88
2023-01-13T04:43:25.764Z,2.03
2023-01-13T04:45:52.281Z,2.88
2023-01-13T04:48:18.840Z,4.93
2023-01-13T04:50:45.351Z,2.95
2023-01-13T04:53:11.856Z,4.55
2023-01-13T04:55:38.641Z,2.45
2023-01-13T04:58:06.043Z,2.28
2023-01-13T05:00:32.711Z,3.20
2023-01-13T05:02:59.521Z,1.83
2023-01-13T05:05:26.467Z,2.55
2023-01-13T05:07:52.874Z,2.28
2023-01-13T05:10:19.448Z,3.28
2023-01-13T05:13:04.474Z,3.78
2023-01-13T05:15:49.827Z,3.35
2023-01-13T05:18:16.795Z,3.08
2023-01-13T05:20:43.274Z,5.10
2023-01-13T05:23:28.559Z,4.32
2023-01-13T05:25:54.963Z,2.33
2023-01-13T05:28:21.463Z,6.13
2023-01-13T05:30:49.506Z,4.30
2023-01-13T05:33:17.227Z,5.13
2023-01-13T05:35:44.786Z,4.80
2023-01-13T05:38:11.491Z,3.35
2023-01-13T05:40:59.325Z,2.80
2023-01-13T05:43:26.660Z,2.72
2023-01-13T05:46:00.738Z,4.03
2023-01-13T05:48:28.915Z,6.15
2023-01-13T05:50:55.620Z,3.35
2023-01-13T05:53:22.654Z,4.22
2023-01-13T05:55:49.394Z,4.13
2023-01-13T05:58:16.655Z,3.15
2023-01-13T06:00:43.295Z,3.58
2023-01-13T06:03:10.413Z,5.82
2023-01-13T06:05:37.133Z,4.72
2023-01-13T06:08:04.909Z,6.00
2023-01-13T06:10:31.680Z,4.00
2023-01-13T06:12:58.269Z,6.80
2023-01-13T06:15:25.103Z,3.88
2023-01-13T06:17:51.719Z,3.75
2023-01-13T06:20:18.716Z,8.05
2023-01-13T06:22:49.720Z,4.10
2023-01-13T06:25:23.666Z,6.40
2023-01-13T06:27:50.743Z,6.45
2023-01-13T06:30:17.543Z,23.40
2023-01-13T06:32:45.903Z,10.68
2023-01-13T06:35:14.089Z,5.47
2023-01-13T06:37:42.379Z,5.10
2023-01-13T06:40:10.152Z,3.20
2023-01-13T06:42:55.296Z,5.18
2023-01-13T06:45:22.468Z,8.10
2023-01-13T06:47:48.974Z,5.68
2023-01-13T06:50:17.332Z,9.40
2023-01-13T06:52:43.848Z,8.07
2023-01-13T06:55:10.288Z,6.38
2023-01-13T06:57:46.587Z,5.55
2023-01-13T07:00:13.425Z,6.15
2023-01-13T07:02:40.077Z,7.07
2023-01-13T07:05:06.640Z,5.38
2023-01-13T07:07:33.597Z,5.72
2023-01-13T07:10:00.514Z,5.20
2023-01-13T07:12:27.028Z,7.57
2023-01-13T07:15:12.245Z,4.80
2023-01-13T07:17:38.696Z,4.57
2023-01-13T07:20:05.523Z,4.22
2023-01-13T07:22:32.017Z,4.35
2023-01-13T07:24:58.540Z,4.13
2023-01-13T07:27:24.948Z,5.22
2023-01-13T07:29:51.340Z,4.75
2023-01-13T07:32:17.755Z,6.72
2023-01-13T07:34:44.278Z,5.93
2023-01-13T07:37:10.786Z,5.20
2023-01-13T07:39:37.183Z,4.22
2023-01-13T07:42:22.377Z,6.45
2023-01-13T07:44:48.843Z,4.22
2023-01-13T07:47:15.418Z,6.93
2023-01-13T07:49:41.895Z,6.57
2023-01-13T07:52:08.931Z,7.97
2023-01-13T07:54:41.020Z,5.23
2023-01-13T07:57:08.110Z,5.97
2023-01-13T07:59:34.749Z,8.25
2023-01-13T08:02:01.426Z,6.13
2023-01-13T08:04:27.997Z,11.07
2023-01-13T08:06:54.561Z,4.90
2023-01-13T08:09:21.059Z,4.32
2023-01-13T08:12:07.461Z,3.85
2023-01-13T08:14:34.057Z,5.07
2023-01-13T08:17:00.576Z,3.83
2023-01-13T08:19:27.045Z,5.28
2023-01-13T08:21:53.616Z,4.55
2023-01-13T08:24:20.069Z,5.13
2023-01-13T08:26:46.523Z,4.22
2023-01-13T08:29:14.855Z,5.57
2023-01-13T08:31:41.780Z,6.28
2023-01-13T08:34:08.223Z,5.28
2023-01-13T08:36:34.745Z,6.53
2023-01-13T08:39:01.592Z,6.23
2023-01-13T08:41:46.629Z,4.00
2023-01-13T08:44:13.139Z,5.83
2023-01-13T08:46:39.664Z,4.37
2023-01-13T08:49:06.064Z,5.33
2023-01-13T08:51:32.516Z,5.75
2023-01-13T08:53:58.924Z,3.75
2023-01-13T08:56:25.357Z,4.72
2023-01-13T08:58:51.801Z,4.13
2023-01-13T09:01:21.306Z,6.97
2023-01-13T09:03:47.889Z,6.47
2023-01-13T09:06:14.531Z,6.07
2023-01-13T09:08:41.082Z,4.13
2023-01-13T09:11:28.544Z,5.18
2023-01-13T09:13:55.044Z,6.85
2023-01-13T09:16:21.627Z,6.40
2023-01-13T09:18:48.048Z,3.72
2023-01-13T09:21:14.718Z,3.70
2023-01-13T09:23:41.147Z,5.70
2023-01-13T09:26:08.737Z,5.40
2023-01-13T09:28:35.227Z,4.47
2023-01-13T09:31:01.875Z,6.15
2023-01-13T09:33:47.192Z,4.18
2023-01-13T09:36:13.638Z,4.83
2023-01-13T09:38:40.151Z,4.83
2023-01-13T09:41:26.730Z,7.27
2023-01-13T09:43:56.892Z,4.60
2023-01-13T09:46:43.997Z,4.00
2023-01-13T09:49:15.849Z,3.78
2023-01-13T09:51:50.039Z,7.75
2023-01-13T09:54:21.895Z,5.43
2023-01-13T09:56:48.559Z,4.30
2023-01-13T09:59:16.181Z,5.70
2023-01-13T10:02:11.843Z,8.20
2023-01-13T10:04:38.439Z,4.90
2023-01-13T10:07:05.891Z,8.02
2023-01-13T10:09:49.589Z,6.80
2023-01-13T10:12:45.174Z,9.23
2023-01-13T10:15:16.793Z,5.63
2023-01-13T10:17:49.372Z,7.88
2023-01-13T10:20:33.836Z,5.05
2023-01-13T10:23:10.328Z,4.88
2023-01-13T10:25:36.837Z,6.90
2023-01-13T10:28:10.814Z,4.90
2023-01-13T10:30:40.262Z,4.57
2023-01-13T10:33:14.958Z,6.32
2023-01-13T10:35:56.840Z,6.70
2023-01-13T10:38:25.310Z,4.35
2023-01-13T10:40:53.739Z,8.20
2023-01-13T10:43:20.598Z,6.25
2023-01-13T10:45:59.391Z,3.78
2023-01-13T10:48:33.120Z,3.85
2023-01-13T10:51:09.491Z,3.05
2023-01-13T10:53:44.355Z,3.72
2023-01-13T10:56:15.732Z,4.90
2023-01-13T11:01:14.812Z,4.82
2023-01-13T11:03:42.975Z,0.93
2023-01-13T11:06:09.943Z,0.57
2023-01-13T11:08:43.002Z,1.20
2023-01-13T11:11:25.638Z,1.55
2023-01-13T11:14:12.553Z,1.85
2023-01-13T11:16:47.368Z,1.73
2023-01-13T11:19:20.758Z,1.35
2023-01-13T11:21:50.099Z,1.23
2023-01-13T11:24:19.560Z,2.92
2023-01-13T11:27:18.191Z,1.80
2023-01-13T11:30:03.203Z,1.08
2023-01-13T11:32:33.487Z,0.45
2023-01-13T11:35:09.941Z,0.50
2023-01-13T11:37:40.582Z,0.63
2023-01-13T11:40:16.481Z,1.17
2023-01-13T11:42:46.007Z,0.70
2023-01-13T11:45:17.003Z,1.10
2023-01-13T11:47:45.255Z,1.55
2023-01-13T11:50:34.527Z,1.50
2023-01-13T11:53:15.438Z,1.08
2023-01-13T11:55:53.927Z,1.80
2023-01-13T11:58:33.783Z,0.93
2023-01-13T12:01:23.283Z,0.60
2023-01-13T12:03:53.029Z,0.90
2023-01-13T12:06:39.263Z,0.47
2023-01-13T12:09:22.220Z,0.30
2023-01-13T12:12:19.339Z,0.40
2023-01-13T12:14:53.510Z,0.88
2023-01-13T12:17:28.863Z,1.77
2023-01-13T12:19:55.345Z,0.80
2023-01-13T12:22:25.275Z,1.02
2023-01-13T12:24:57.705Z,1.80
2023-01-13T12:27:26.892Z,0.75
2023-01-13T12:29:57.040Z,0.60
2023-01-13T12:32:27.283Z,0.95
2023-01-13T12:34:53.960Z,0.32
2023-01-13T12:37:20.360Z,0.75
2023-01-13T12:40:14.122Z,0.73
2023-01-13T12:43:21.526Z,2.53
2023-01-13T12:45:48.158Z,0.68
2023-01-13T12:48:33.326Z,3.58
2023-01-13T12:51:02.442Z,1.27
2023-01-13T12:53:30.732Z,0.80
2023-01-13T12:56:20.699Z,0.82
2023-01-13T12:58:47.244Z,1.58
2023-01-13T13:01:14.522Z,1.13
2023-01-13T13:03:41.530Z,1.27
2023-01-13T13:06:17.704Z,1.67
2023-01-13T13:08:44.099Z,1.75
2023-01-13T13:11:32.058Z,1.42
2023-01-13T13:14:01.927Z,1.60
2023-01-13T13:16:29.502Z,1.77
2023-01-13T13:19:14.632Z,1.58
2023-01-13T13:21:59.751Z,1.48
2023-01-13T13:24:26.504Z,1.02
2023-01-13T13:26:52.945Z,0.80
2023-01-13T13:29:26.956Z,0.45
2023-01-13T13:31:59.207Z,0.90
2023-01-13T13:34:29.587Z,2.28
2023-01-13T13:37:07.390Z,0.75
2023-01-13T13:39:52.813Z,1.20
2023-01-13T13:42:55.504Z,0.75
2023-01-13T13:45:42.515Z,0.95
2023-01-13T13:48:21.295Z,0.93
2023-01-13T13:50:54.931Z,1.80
2023-01-13T13:53:22.100Z,1.20
2023-01-13T13:55:55.637Z,2.17
2023-01-13T13:58:22.906Z,1.50
2023-01-13T14:00:49.649Z,0.90
2023-01-13T14:03:24.956Z,1.60
2023-01-13T14:05:54.420Z,2.60
2023-01-13T14:08:21.027Z,1.92
2023-01-13T14:10:47.506Z,1.15
2023-01-13T14:13:15.191Z,2.33
2023-01-13T14:15:41.828Z,2.28
2023-01-13T14:18:13.450Z,4.00
2023-01-13T14:20:40.655Z,1.50
2023-01-13T14:23:07.571Z,2.00
2023-01-13T14:25:37.154Z,2.45
2023-01-13T14:28:08.479Z,1.85
2023-01-13T14:30:35.055Z,1.63
2023-01-13T14:33:01.918Z,4.35
2023-01-13T14:35:29.375Z,2.30
2023-01-13T14:38:01.273Z,3.60
2023-01-13T14:40:36.127Z,3.33
2023-01-13T14:43:03.666Z,2.97
2023-01-13T14:45:33.083Z,1.15
2023-01-13T14:48:01.078Z,1.50
2023-01-13T14:50:31.526Z,3.65
2023-01-13T14:53:00.418Z,1.65
2023-01-13T14:55:31.720Z,2.95
2023-01-13T15:00:25.737Z,3.15
2023-01-13T15:02:58.141Z,2.13
2023-01-13T15:05:29.383Z,1.85
2023-01-13T15:07:59.329Z,1.77
2023-01-13T15:10:30.789Z,2.13
2023-01-13T15:12:58.392Z,2.55
2023-01-13T15:15:27.493Z,2.13
2023-01-13T15:17:54.383Z,2.63
2023-01-13T15:20:21.684Z,3.28
2023-01-13T15:22:48.364Z,4.45
2023-01-13T15:25:15.027Z,3.00
2023-01-13T15:27:45.178Z,2.40
2023-01-13T15:30:14.880Z,2.63
2023-01-13T15:32:41.708Z,1.08
2023-01-13T15:35:09.479Z,1.15
2023-01-13T15:37:36.103Z,2.00
2023-01-13T15:40:02.665Z,1.45
2023-01-13T15:42:48.821Z,1.75
2023-01-13T15:45:34.004Z,0.90
2023-01-13T15:48:00.601Z,4.72
2023-01-13T15:50:28.790Z,1.23
2023-01-13T15:52:55.251Z,1.15
2023-01-13T15:55:21.680Z,0.63
2023-01-13T15:57:49.660Z,3.08
2023-01-13T16:00:20.234Z,2.58
2023-01-13T16:02:46.710Z,1.05
2023-01-13T16:05:13.225Z,1.45
2023-01-13T16:07:39.690Z,1.38
2023-01-13T16:10:08.446Z,1.05
2023-01-13T16:12:34.885Z,2.65
2023-01-13T16:15:01.293Z,1.35
2023-01-13T16:17:30.016Z,1.45
2023-01-13T16:19:56.669Z,1.20
2023-01-13T16:22:23.195Z,4.68
2023-01-13T16:24:49.831Z,1.55
2023-01-13T16:27:20.353Z,1.05
2023-01-13T16:29:47.452Z,1.08
2023-01-13T16:32:14.139Z,1.17
2023-01-13T16:34:40.884Z,1.10
2023-01-13T16:37:23.971Z,1.00
2023-01-13T16:39:50.935Z,0.95
2023-01-13T16:42:17.594Z,1.30
2023-01-13T16:44:44.198Z,0.70
2023-01-13T16:47:14.479Z,1.63
2023-01-13T16:49:40.965Z,1.58
2023-01-13T16:52:07.452Z,1.50
2023-01-13T16:54:34.109Z,2.05
2023-01-13T16:57:00.561Z,1.88
2023-01-13T16:59:27.070Z,2.78
2023-01-13T17:01:53.661Z,1.65
2023-01-13T17:04:23.580Z,1.55
2023-01-13T17:07:00.728Z,1.40
2023-01-13T17:09:28.624Z,0.85
2023-01-13T17:11:55.559Z,3.53
2023-01-13T17:14:23.502Z,1.27
2023-01-13T17:16:51.560Z,1.08
2023-01-13T17:19:18.939Z,1.10
2023-01-13T17:21:47.021Z,3.38
2023-01-13T17:24:14.131Z,1.38
2023-01-13T17:26:47.211Z,1.30
2023-01-13T17:29:14.951Z,1.60
2023-01-13T17:31:41.507Z,2.05
2023-01-13T17:34:07.970Z,3.05
2023-01-13T17:36:34.423Z,2.83
2023-01-13T17:39:00.925Z,1.67
2023-01-13T17:41:27.468Z,2.63
2023-01-13T17:43:53.888Z,3.00
2023-01-13T17:46:22.450Z,2.22
2023-01-13T17:48:49.645Z,2.63
2023-01-13T17:51:20.533Z,1.50
2023-01-13T17:53:47.090Z,2.30
2023-01-13T17:56:14.463Z,2.75
2023-01-13T17:58:41.555Z,3.10
2023-01-13T18:01:09.556Z,2.47
2023-01-13T18:03:36.208Z,1.75
2023-01-13T18:06:12.001Z,4.93
2023-01-13T18:08:38.465Z,2.53
2023-01-13T18:11:04.943Z,2.28
2023-01-13T18:13:33.248Z,2.78
2023-01-13T18:16:06.126Z,1.50
2023-01-13T18:18:34.329Z,1.65
2023-01-13T18:21:19.506Z,2.75
2023-01-13T18:24:04.734Z,1.63
2023-01-13T18:26:49.977Z,1.67
2023-01-13T18:29:16.470Z,0.63
2023-01-13T18:31:42.970Z,1.38
2023-01-13T18:34:09.352Z,1.25
2023-01-13T18:36:36.442Z,1.55
2023-01-13T18:39:03.476Z,2.45
2023-01-13T18:41:48.729Z,1.15
2023-01-13T18:44:15.298Z,1.27
2023-01-13T18:46:41.800Z,2.15
2023-01-13T18:49:08.273Z,2.53
2023-01-13T18:51:34.758Z,2.00
2023-01-13T18:54:01.134Z,1.42
2023-01-13T18:56:27.633Z,1.35
2023-01-13T18:58:54.252Z,2.10
2023-01-13T19:01:22.840Z,1.60
2023-01-13T19:03:59.646Z,1.77
2023-01-13T19:06:27.336Z,2.22
2023-01-13T19:08:55.750Z,2.53
2023-01-13T19:11:23.016Z,3.20
2023-01-13T19:13:50.329Z,2.80
2023-01-13T19:16:17.256Z,4.13
2023-01-13T19:18:43.751Z,6.20
2023-01-13T19:21:10.279Z,5.28
2023-01-13T19:23:36.861Z,5.53
2023-01-13T19:26:05.027Z,2.40
2023-01-13T19:28:31.556Z,4.95
2023-01-13T19:31:01.743Z,3.75
2023-01-13T19:33:29.536Z,2.53
2023-01-13T19:35:56.177Z,4.32
2023-01-13T19:38:23.557Z,3.72
2023-01-13T19:41:00.730Z,5.10
2023-01-13T19:43:45.846Z,2.80
2023-01-13T19:46:13.168Z,3.33
2023-01-13T19:48:40.404Z,4.43
2023-01-13T19:51:07.232Z,2.65
2023-01-13T19:53:33.688Z,1.58
2023-01-13T19:56:00.244Z,1.90
2023-01-13T19:58:26.869Z,2.23
2023-01-13T20:00:53.881Z,1.80
2023-01-13T20:03:24.173Z,3.57
2023-01-13T20:05:54.098Z,3.37
2023-01-13T20:08:21.653Z,2.83
2023-01-13T20:10:48.799Z,1.60
2023-01-13T20:13:16.251Z,2.90
2023-01-13T20:15:43.474Z,3.73
2023-01-13T20:18:09.930Z,4.55
2023-01-13T20:20:37.133Z,4.80
2023-01-13T20:23:03.580Z,3.33
2023-01-13T20:25:30.162Z,4.57
2023-01-13T20:27:56.863Z,3.63
2023-01-13T20:30:23.453Z,4.73
2023-01-13T20:32:50.023Z,3.83
2023-01-13T20:35:17.129Z,6.13
2023-01-13T20:37:43.906Z,6.03
2023-01-13T20:40:12.904Z,5.17
2023-01-13T20:42:44.663Z,6.77
2023-01-13T20:45:15.285Z,4.77
2023-01-13T20:47:41.698Z,3.70
2023-01-13T20:50:08.330Z,3.60
2023-01-13T20:52:34.772Z,4.20
2023-01-13T20:55:01.196Z,4.57
2023-01-13T20:57:27.702Z,12.03
2023-01-13T20:59:54.195Z,6.30
2023-01-13T21:02:22.623Z,7.57
2023-01-13T21:04:49.078Z,8.07
2023-01-13T21:07:15.477Z,6.23
2023-01-13T21:09:41.956Z,3.40
2023-01-13T21:12:27.312Z,6.07
2023-01-13T21:15:12.404Z,8.47
2023-01-13T21:17:57.256Z,6.03
2023-01-13T21:20:23.778Z,5.53
2023-01-13T21:22:50.317Z,6.93
2023-01-13T21:25:17.574Z,4.13
2023-01-13T21:27:44.305Z,5.10
2023-01-13T21:30:14.864Z,6.10
2023-01-13T21:32:41.932Z,6.78
2023-01-13T21:35:08.639Z,7.37
2023-01-13T21:37:36.361Z,6.27
2023-01-13T21:40:03.652Z,2.83
2023-01-13T21:42:48.489Z,6.37
2023-01-13T21:45:33.562Z,6.13
2023-01-13T21:48:00.127Z,3.50
2023-01-13T21:50:28.102Z,7.77
2023-01-13T21:52:55.039Z,6.17
2023-01-13T21:55:28.610Z,5.40
2023-01-13T21:58:11.844Z,3.95
2023-01-13T22:00:39.098Z,5.57
2023-01-13T22:03:06.360Z,4.00
2023-01-13T22:05:32.861Z,3.65
2023-01-13T22:07:59.282Z,4.40
2023-01-13T22:10:26.724Z,4.82
2023-01-13T22:12:54.067Z,5.10
2023-01-13T22:15:20.735Z,5.32
2023-01-13T22:17:49.900Z,4.90
2023-01-13T22:20:17.063Z,5.68
2023-01-13T22:22:43.715Z,5.25
2023-01-13T22:25:11.435Z,4.53
2023-01-13T22:27:42.374Z,5.30
2023-01-13T22:30:11.339Z,5.40
2023-01-13T22:32:38.625Z,5.67
2023-01-13T22:35:06.207Z,5.43
2023-01-13T22:37:32.785Z,5.37
2023-01-13T22:39:59.205Z,11.63
2023-01-13T22:42:25.650Z,5.03
2023-01-13T22:44:52.064Z,6.68
2023-01-13T22:47:18.690Z,3.88
2023-01-13T22:49:47.777Z,6.45
2023-01-13T22:52:15.099Z,7.60
2023-01-13T22:54:41.527Z,6.18
2023-01-13T22:57:08.003Z,7.30
2023-01-13T22:59:34.455Z,5.47
2023-01-13T23:02:00.929Z,4.30
2023-01-13T23:04:27.463Z,4.73
2023-01-13T23:06:53.940Z,5.80
2023-01-13T23:09:20.698Z,6.22
2023-01-13T23:11:47.935Z,3.53
2023-01-13T23:14:14.449Z,6.10
2023-01-13T23:16:41.207Z,6.30
2023-01-13T23:19:07.995Z,4.82
2023-01-13T23:21:36.183Z,4.88
2023-01-13T23:24:03.724Z,5.40
2023-01-13T23:26:30.622Z,10.30
2023-01-13T23:29:01.380Z,4.18
2023-01-13T23:31:27.863Z,5.22
2023-01-13T23:33:54.344Z,5.85
2023-01-13T23:36:21.883Z,4.10
2023-01-13T23:38:48.452Z,4.55
2023-01-13T23:41:15.987Z,9.00
2023-01-13T23:43:42.430Z,7.07
2023-01-13T23:46:10.623Z,7.57
2023-01-13T23:48:37.164Z,8.80
2023-01-13T23:51:05.065Z,6.53
2023-01-13T23:53:33.597Z,5.03
2023-01-13T23:56:00.871Z,5.38
2023-01-13T23:58:27.883Z,6.40
